DFSMT EDDG-EDDG
Flight info
| Callsign | DFSMT |
|---|---|
| Flight time | 0h 5m |
| Altitude | 2000 |
| Route | VFR |
| Aircraft | PC12/L-S/L |
Departure
| Time | 2026-04-15 16:25 |
|---|---|
| Airport | Münster Osnabrück Airport (EDDG) |
Arrival
| Time | 2026-04-15 16:30 |
|---|---|
| Airport | Münster Osnabrück Airport (EDDG) |
| Time | Latitude | Longitude | Altitude | Speed | Heading |
|---|---|---|---|---|---|
| 2026-04-15 16:20 | 52.13095 | 7.68570 | 164 ft | 0 kts | 1° |
| 2026-04-15 16:23 | 52.13102 | 7.68556 | 164 ft | 8 kts | 279° |
| 2026-04-15 16:23 | 52.13110 | 7.68414 | 164 ft | 12 kts | 302° |
| 2026-04-15 16:23 | 52.13193 | 7.68355 | 164 ft | 14 kts | 340° |
| 2026-04-15 16:24 | 52.13299 | 7.68296 | 164 ft | 14 kts | 342° |
| 2026-04-15 16:24 | 52.13329 | 7.68280 | 164 ft | 4 kts | 341° |
| 2026-04-15 16:24 | 52.13391 | 7.68247 | 165 ft | 11 kts | 343° |
| 2026-04-15 16:24 | 52.13407 | 7.68212 | 165 ft | 0 kts | 250° |
| 2026-04-15 16:25 | 52.13361 | 7.67992 | 164 ft | 57 kts | 251° |
| 2026-04-15 16:25 | 52.13167 | 7.67068 | 255 ft | 105 kts | 251° |
| 2026-04-15 16:25 | 52.12910 | 7.65765 | 639 ft | 137 kts | 249° |
| 2026-04-15 16:25 | 52.12268 | 7.64623 | 995 ft | 146 kts | 197° |
| 2026-04-15 16:26 | 52.11285 | 7.64893 | 1063 ft | 154 kts | 146° |
| 2026-04-15 16:26 | 52.10740 | 7.66378 | 1077 ft | 159 kts | 104° |
| 2026-04-15 16:26 | 52.10845 | 7.68017 | 1028 ft | 135 kts | 70° |
| 2026-04-15 16:26 | 52.11267 | 7.69357 | 958 ft | 138 kts | 65° |
| 2026-04-15 16:27 | 52.11436 | 7.70749 | 913 ft | 128 kts | 110° |
| 2026-04-15 16:27 | 52.10829 | 7.71622 | 886 ft | 118 kts | 174° |
| 2026-04-15 16:27 | 52.10124 | 7.71061 | 903 ft | 120 kts | 238° |
| 2026-04-15 16:27 | 52.10201 | 7.69733 | 906 ft | 131 kts | 304° |
| 2026-04-15 16:28 | 52.11017 | 7.69177 | 859 ft | 135 kts | 5° |
| 2026-04-15 16:28 | 52.11720 | 7.69915 | 863 ft | 111 kts | 62° |
| 2026-04-15 16:28 | 52.12037 | 7.70950 | 954 ft | 99 kts | 69° |
| 2026-04-15 16:28 | 52.12325 | 7.71925 | 974 ft | 99 kts | 69° |
| 2026-04-15 16:29 | 52.12713 | 7.72850 | 948 ft | 99 kts | 37° |
| 2026-04-15 16:29 | 52.13370 | 7.73018 | 925 ft | 97 kts | 344° |
| 2026-04-15 16:29 | 52.13970 | 7.72533 | 871 ft | 96 kts | 319° |
| 2026-04-15 16:29 | 52.14136 | 7.71562 | 690 ft | 96 kts | 244° |
| 2026-04-15 16:30 | 52.13901 | 7.70538 | 382 ft | 94 kts | 249° |
| 2026-04-15 16:30 | 52.13693 | 7.69564 | 172 ft | 86 kts | 250° |
| 2026-04-15 16:30 | 52.13516 | 7.68729 | 164 ft | 69 kts | 251° |
| 2026-04-15 16:30 | 52.13423 | 7.68298 | 165 ft | 16 kts | 238° |
| 2026-04-15 16:31 | 52.13298 | 7.68296 | 164 ft | 24 kts | 160° |
| 2026-04-15 16:31 | 52.13144 | 7.68382 | 164 ft | 17 kts | 161° |
| 2026-04-15 16:31 | 52.13081 | 7.68501 | 164 ft | 7 kts | 78° |
| 2026-04-15 16:31 | 52.13096 | 7.68522 | 164 ft | 0 kts | 358° |